Time;durP1;ratioP1;P1;durP2;ratioP2;P2;SDS_P1;SDS_P2;PMS_P1;PMS_P2;Temp;Humidity;BMP_temperature;BMP_pressure;BME280_temperature;BME280_humidity;BME280_pressure;Samples;Min_cycle;Max_cycle;Signal;HPM_P1;HPM_P2
2023/02/12 00:00:32;;;;;;;8.27;4.75;;;19.70;99.90;;;;;;5025898;28;20148;-60
2023/02/12 00:02:58;;;;;;;10.80;5.45;;;19.70;99.90;;;;;;5015341;28;20109;-61
2023/02/12 00:05:24;;;;;;;10.85;5.43;;;19.60;99.90;;;;;;4998358;28;20069;-60
2023/02/12 00:07:50;;;;;;;10.77;4.90;;;19.60;99.90;;;;;;5040212;28;20079;-59
2023/02/12 00:10:16;;;;;;;9.73;4.95;;;19.60;99.90;;;;;;5031314;28;20502;-56
2023/02/12 00:12:42;;;;;;;8.80;4.38;;;19.60;99.90;;;;;;5017185;28;20079;-59
2023/02/12 00:15:08;;;;;;;9.43;4.90;;;19.60;99.90;;;;;;5035722;28;20056;-58
2023/02/12 00:17:34;;;;;;;10.25;5.05;;;19.60;99.90;;;;;;5022391;28;20029;-58
2023/02/12 00:19:59;;;;;;;14.70;6.38;;;19.60;99.90;;;;;;5023732;28;20030;-58
2023/02/12 00:22:26;;;;;;;9.68;4.57;;;19.60;99.90;;;;;;5016275;28;20022;-59
2023/02/12 00:24:52;;;;;;;11.33;5.33;;;19.60;99.90;;;;;;5037312;28;20121;-57
2023/02/12 00:27:18;;;;;;;9.77;5.80;;;19.60;99.90;;;;;;5019407;28;20120;-60
2023/02/12 00:29:44;;;;;;;11.60;5.15;;;19.60;99.90;;;;;;5027717;28;20037;-59
2023/02/12 00:32:10;;;;;;;12.35;5.50;;;19.60;99.90;;;;;;5026202;28;20086;-59
2023/02/12 00:34:35;;;;;;;8.30;5.28;;;19.60;99.90;;;;;;5033957;28;20065;-58
2023/02/12 00:37:01;;;;;;;9.30;5.03;;;19.50;99.90;;;;;;5051229;28;20021;-57
2023/02/12 00:39:27;;;;;;;10.15;4.57;;;19.50;99.90;;;;;;5053067;28;20029;-58
2023/02/12 00:41:53;;;;;;;11.40;5.35;;;19.50;99.90;;;;;;5054127;28;20067;-59
2023/02/12 00:44:18;;;;;;;10.68;5.00;;;19.50;99.90;;;;;;5053328;28;20029;-59
2023/02/12 00:46:44;;;;;;;10.10;5.07;;;19.50;99.90;;;;;;5026666;28;20040;-58
2023/02/12 00:49:10;;;;;;;9.40;4.60;;;19.40;99.90;;;;;;5049926;28;20414;-59
2023/02/12 00:51:36;;;;;;;9.45;4.63;;;19.50;99.90;;;;;;5053586;28;20025;-59
2023/02/12 00:54:01;;;;;;;6.70;4.00;;;19.40;99.90;;;;;;5021143;28;20033;-59
2023/02/12 00:56:27;;;;;;;13.98;4.60;;;19.50;99.90;;;;;;5033951;28;20030;-59
2023/02/12 00:58:53;;;;;;;12.73;4.97;;;19.40;99.90;;;;;;5034505;28;20514;-59
2023/02/12 01:01:19;;;;;;;13.55;4.95;;;19.40;99.90;;;;;;5039491;28;20553;-58
2023/02/12 01:03:44;;;;;;;9.25;4.78;;;19.40;99.90;;;;;;5040643;28;20471;-59
2023/02/12 01:06:10;;;;;;;12.82;5.22;;;19.40;99.90;;;;;;5048753;28;20032;-58
2023/02/12 01:08:36;;;;;;;8.32;5.25;;;19.40;99.90;;;;;;5044729;28;20043;-58
2023/02/12 01:11:04;;;;;;;9.50;4.80;;;19.40;99.90;;;;;;5048655;28;20037;-59
2023/02/12 01:13:33;;;;;;;9.15;4.43;;;19.40;99.90;;;;;;5033391;28;20099;-59
2023/02/12 01:16:19;;;;;;;10.13;4.70;;;19.40;99.90;;;;;;5033036;28;20022;-60
2023/02/12 01:18:46;;;;;;;9.13;4.65;;;19.30;99.90;;;;;;5033241;28;20072;-59
2023/02/12 01:21:16;;;;;;;9.43;4.50;;;19.40;99.90;;;;;;5046968;28;20041;-58
2023/02/12 01:23:42;;;;;;;10.32;4.72;;;19.30;99.90;;;;;;5052879;28;20079;-58
2023/02/12 01:26:09;;;;;;;8.63;4.28;;;19.30;99.90;;;;;;5040875;28;20021;-58
2023/02/12 01:28:37;;;;;;;9.18;4.50;;;19.30;99.90;;;;;;5038497;28;20055;-58
2023/02/12 01:31:08;;;;;;;14.73;5.38;;;19.30;99.90;;;;;;5040549;28;20107;-58
2023/02/12 01:33:34;;;;;;;11.93;4.70;;;19.30;99.90;;;;;;5048366;28;20042;-59
2023/02/12 01:35:59;;;;;;;7.13;4.82;;;19.30;99.90;;;;;;5043808;28;20021;-59
2023/02/12 01:38:25;;;;;;;10.02;4.85;;;19.30;99.90;;;;;;5039079;28;20056;-59
2023/02/12 01:40:51;;;;;;;9.55;4.35;;;19.30;99.90;;;;;;5043737;28;20047;-59
2023/02/12 01:43:17;;;;;;;9.18;5.07;;;19.30;99.90;;;;;;5035080;28;20025;-59
2023/02/12 01:45:47;;;;;;;10.70;5.10;;;19.30;99.90;;;;;;5052615;28;20430;-59
2023/02/12 01:48:15;;;;;;;9.70;4.70;;;19.30;99.90;;;;;;5042974;28;20026;-59
2023/02/12 01:50:42;;;;;;;9.77;4.47;;;19.30;99.90;;;;;;5047440;28;20029;-59
2023/02/12 01:53:08;;;;;;;;;;;19.30;99.90;;;;;;5042104;28;20055;-59
2023/02/12 01:55:34;;;;;;;7.85;4.47;;;19.30;99.90;;;;;;5049506;28;19905;-59
2023/02/12 01:58:01;;;;;;;8.57;4.18;;;19.30;99.90;;;;;;5032506;28;20049;-59
2023/02/12 02:00:26;;;;;;;11.55;5.10;;;19.20;99.90;;;;;;5046029;28;20091;-59
2023/02/12 02:02:58;;;;;;;10.57;4.40;;;19.30;99.90;;;;;;5014636;28;20479;-58
2023/02/12 02:05:46;;;;;;;7.72;4.78;;;19.20;99.90;;;;;;5032210;28;20025;-58
2023/02/12 02:08:12;;;;;;;;;;;19.20;99.90;;;;;;5022745;28;20017;-58
2023/02/12 02:10:38;;;;;;;9.50;4.70;;;19.20;99.90;;;;;;5048454;28;19916;-59
2023/02/12 02:15:53;;;;;;;7.22;4.45;;;19.20;99.90;;;;;;5052161;28;20032;-59
2023/02/12 02:19:26;;;;;;;11.60;5.10;;;19.20;99.90;;;;;;5052260;28;20025;-60
2023/02/12 02:22:31;;;;;;;9.00;4.88;;;19.10;99.90;;;;;;4971204;28;20058;-58
2023/02/12 02:24:59;;;;;;;9.38;4.85;;;19.20;99.90;;;;;;4962335;28;20459;-59
2023/02/12 02:27:55;;;;;;;12.52;4.93;;;19.10;99.90;;;;;;5024691;28;20483;-59
2023/02/12 02:30:44;;;;;;;10.63;4.88;;;19.20;99.90;;;;;;5046089;28;20383;-59
2023/02/12 02:33:21;;;;;;;8.00;4.63;;;19.20;99.90;;;;;;5042138;28;20029;-59
2023/02/12 02:35:57;;;;;;;10.70;4.68;;;19.20;99.90;;;;;;5036089;28;20019;-59
2023/02/12 02:38:44;;;;;;;9.27;4.40;;;19.10;99.90;;;;;;5041139;28;20472;-59
2023/02/12 02:41:26;;;;;;;9.00;4.28;;;19.10;99.90;;;;;;5026857;28;20056;-60
2023/02/12 02:43:53;;;;;;;9.98;5.10;;;19.10;99.90;;;;;;5050955;28;20025;-59
2023/02/12 02:46:49;;;;;;;8.20;4.77;;;19.10;99.90;;;;;;5043737;28;20068;-59
2023/02/12 02:49:46;;;;;;;9.13;4.63;;;19.10;99.90;;;;;;5045233;28;20108;-59
2023/02/12 02:52:18;;;;;;;12.57;5.80;;;19.10;99.90;;;;;;5031498;28;20064;-59
2023/02/12 02:54:53;;;;;;;10.85;5.53;;;19.10;99.90;;;;;;5040947;28;20100;-56
2023/02/12 02:57:34;;;;;;;11.13;5.07;;;19.10;99.90;;;;;;5034857;28;20097;-59
2023/02/12 03:00:19;;;;;;;9.45;4.72;;;19.10;99.90;;;;;;5032183;28;20057;-59
2023/02/12 03:02:54;;;;;;;7.25;4.53;;;19.10;99.90;;;;;;5051787;28;20021;-59
2023/02/12 03:05:28;;;;;;;10.95;4.82;;;19.10;99.90;;;;;;5038741;28;21057;-59
2023/02/12 03:08:23;;;;;;;8.25;4.85;;;19.10;99.90;;;;;;5031818;28;20100;-59
2023/02/12 03:10:56;;;;;;;10.38;5.55;;;19.00;99.90;;;;;;5031639;28;20017;-59
2023/02/12 03:13:36;;;;;;;7.95;4.75;;;19.10;99.90;;;;;;5031437;28;20488;-59
2023/02/12 03:16:29;;;;;;;11.57;4.75;;;19.00;99.90;;;;;;5050877;28;20017;-59
2023/02/12 03:19:26;;;;;;;7.25;4.75;;;19.10;99.90;;;;;;5026129;28;20442;-59
2023/02/12 03:22:02;;;;;;;8.07;4.07;;;19.00;99.90;;;;;;5030618;28;20095;-61
2023/02/12 03:24:49;;;;;;;10.05;5.18;;;19.00;99.90;;;;;;5017663;28;20108;-59
2023/02/12 03:27:20;;;;;;;8.23;5.13;;;19.00;99.90;;;;;;5044840;28;20092;-59
2023/02/12 03:29:47;;;;;;;7.70;4.63;;;19.00;99.90;;;;;;5041250;28;20025;-59
2023/02/12 03:32:47;;;;;;;7.90;4.38;;;19.00;99.90;;;;;;5037919;28;20561;-59
2023/02/12 03:35:30;;;;;;;8.40;5.07;;;19.00;99.90;;;;;;5050610;28;20095;-58
2023/02/12 03:38:07;;;;;;;9.93;5.00;;;19.00;99.90;;;;;;5018848;28;20025;-59
2023/02/12 03:40:40;;;;;;;10.20;5.22;;;19.00;99.90;;;;;;5044593;28;20033;-59
2023/02/12 03:43:37;;;;;;;9.45;5.13;;;19.00;99.90;;;;;;5040552;28;20471;-58
2023/02/12 03:46:34;;;;;;;8.02;4.20;;;19.00;99.90;;;;;;5045957;28;20116;-59
2023/02/12 03:49:11;;;;;;;8.73;5.05;;;19.00;99.90;;;;;;5033968;28;20080;-59
2023/02/12 03:51:38;;;;;;;6.43;4.40;;;18.90;99.90;;;;;;5041342;28;20484;-58
2023/02/12 03:54:06;;;;;;;8.20;4.50;;;18.90;99.90;;;;;;5031101;28;20036;-59
2023/02/12 03:56:38;;;;;;;12.15;5.10;;;18.90;99.90;;;;;;5031272;28;20519;-57
2023/02/12 03:59:04;;;;;;;9.98;4.82;;;18.90;99.90;;;;;;5033258;28;20117;-62
2023/02/12 04:01:32;;;;;;;11.13;4.65;;;18.90;99.90;;;;;;5045138;28;20067;-59
2023/02/12 04:04:03;;;;;;;9.55;4.72;;;18.90;99.90;;;;;;5053014;28;20489;-59
2023/02/12 04:06:29;;;;;;;8.65;4.82;;;18.90;99.90;;;;;;5043801;28;20040;-59
2023/02/12 04:08:57;;;;;;;11.32;5.13;;;18.90;99.90;;;;;;5051914;28;20021;-59
2023/02/12 04:11:44;;;;;;;11.93;5.05;;;18.90;99.90;;;;;;5044125;28;20024;-59
2023/02/12 04:14:28;;;;;;;10.38;5.40;;;18.90;99.90;;;;;;5053862;28;20033;-57
2023/02/12 04:16:57;;;;;;;9.50;5.63;;;18.90;99.90;;;;;;5039127;28;20100;-58
2023/02/12 04:19:35;;;;;;;10.30;4.88;;;18.90;99.90;;;;;;5043009;28;20459;-58
2023/02/12 04:22:26;;;;;;;7.50;4.50;;;18.90;99.90;;;;;;5037483;28;20017;-57
2023/02/12 04:25:25;;;;;;;10.00;5.68;;;18.90;99.90;;;;;;5047491;28;20028;-58
2023/02/12 04:28:38;;;;;;;9.77;4.90;;;18.80;99.90;;;;;;5003094;28;20472;-57
2023/02/12 04:31:28;;;;;;;8.05;5.10;;;18.90;99.90;;;;;;5030522;28;20040;-57
2023/02/12 04:34:12;;;;;;;10.10;5.22;;;18.80;99.90;;;;;;5033954;28;20169;-58
2023/02/12 04:36:48;;;;;;;10.68;6.00;;;18.80;99.90;;;;;;5033986;28;20353;-58
2023/02/12 04:39:24;;;;;;;10.68;5.30;;;18.80;99.90;;;;;;5044400;28;20102;-58
2023/02/12 04:41:51;;;;;;;8.77;5.30;;;18.80;99.90;;;;;;5036602;28;20040;-58
2023/02/12 04:44:23;;;;;;;9.50;5.47;;;18.80;99.90;;;;;;5037946;28;20020;-59
2023/02/12 04:46:49;;;;;;;10.35;5.63;;;18.80;99.90;;;;;;5042292;28;20021;-58
2023/02/12 04:49:17;;;;;;;9.30;5.68;;;18.80;99.90;;;;;;5033708;28;20422;-56
2023/02/12 04:51:43;;;;;;;;;;;18.80;99.90;;;;;;5044690;28;20102;-57
2023/02/12 04:54:09;;;;;;;7.90;4.57;;;18.80;99.90;;;;;;5036794;28;19919;-59
2023/02/12 04:56:34;;;;;;;8.60;4.20;;;18.80;99.90;;;;;;5042558;28;20021;-56
2023/02/12 04:59:00;;;;;;;9.95;4.97;;;18.80;99.90;;;;;;5040074;28;20036;-57
2023/02/12 05:01:26;;;;;;;8.90;4.95;;;18.80;99.90;;;;;;5046114;28;20046;-55
2023/02/12 05:03:52;;;;;;;11.10;5.43;;;18.70;99.90;;;;;;5033731;28;20095;-56
2023/02/12 05:06:18;;;;;;;9.15;5.20;;;18.80;99.90;;;;;;5033341;28;20052;-55
2023/02/12 05:08:44;;;;;;;9.20;5.28;;;18.70;99.90;;;;;;5033043;28;20025;-56
2023/02/12 05:11:10;;;;;;;11.30;5.15;;;18.70;99.90;;;;;;5033434;28;20029;-56
2023/02/12 05:13:37;;;;;;;9.88;5.85;;;18.70;99.90;;;;;;5033408;28;20037;-56
2023/02/12 05:16:04;;;;;;;9.38;5.80;;;18.70;99.90;;;;;;5038970;28;20082;-56
2023/02/12 05:18:30;;;;;;;14.27;6.38;;;18.70;99.90;;;;;;5053167;28;20021;-56
2023/02/12 05:20:58;;;;;;;10.82;5.90;;;18.70;99.90;;;;;;5030890;28;20033;-56
2023/02/12 05:23:29;;;;;;;9.23;5.47;;;18.70;99.90;;;;;;5033355;28;20108;-56
2023/02/12 05:25:59;;;;;;;9.90;5.50;;;18.70;99.90;;;;;;5051907;28;20094;-56
2023/02/12 05:28:25;;;;;;;13.55;5.75;;;18.70;99.90;;;;;;5042400;28;20060;-55
2023/02/12 05:30:50;;;;;;;8.80;5.03;;;18.70;99.90;;;;;;5046188;28;20045;-56
2023/02/12 05:33:16;;;;;;;9.40;5.30;;;18.70;99.90;;;;;;5043817;28;20048;-57
2023/02/12 05:35:42;;;;;;;11.15;5.57;;;18.70;99.90;;;;;;5036949;28;20030;-56
2023/02/12 05:38:08;;;;;;;7.85;4.78;;;18.70;99.90;;;;;;5042214;28;20071;-53
2023/02/12 05:40:34;;;;;;;10.20;5.50;;;18.70;99.90;;;;;;5036759;28;20028;-57
2023/02/12 05:43:00;;;;;;;9.88;4.97;;;18.70;99.90;;;;;;5032646;28;20038;-58
2023/02/12 05:45:28;;;;;;;10.02;4.68;;;18.70;99.90;;;;;;5046652;28;20379;-58
2023/02/12 05:47:54;;;;;;;10.25;5.55;;;18.70;99.90;;;;;;5046473;28;20029;-57
2023/02/12 05:50:20;;;;;;;13.57;6.47;;;18.60;99.90;;;;;;5032511;28;20109;-58
2023/02/12 05:52:46;;;;;;;9.18;5.40;;;18.60;99.90;;;;;;5032457;28;20033;-58
2023/02/12 05:55:12;;;;;;;10.48;6.05;;;18.60;99.90;;;;;;5026524;28;20032;-58
2023/02/12 05:57:38;;;;;;;11.27;5.82;;;18.60;99.90;;;;;;5052232;28;20096;-57
2023/02/12 06:00:06;;;;;;;9.32;6.00;;;18.60;99.90;;;;;;5040567;28;20056;-58
2023/02/12 06:02:33;;;;;;;11.60;5.63;;;18.60;99.90;;;;;;5032596;28;20104;-57
2023/02/12 06:04:59;;;;;;;10.70;5.45;;;18.60;99.90;;;;;;5043707;28;20024;-57
2023/02/12 06:07:25;;;;;;;9.55;5.90;;;18.60;99.90;;;;;;5031809;28;20030;-57
2023/02/12 06:09:51;;;;;;;10.32;5.78;;;18.60;99.90;;;;;;5041985;28;20024;-57
2023/02/12 06:12:16;;;;;;;11.68;5.30;;;18.60;99.90;;;;;;5038470;28;20049;-57
2023/02/12 06:14:42;;;;;;;9.27;5.80;;;18.60;99.90;;;;;;5044337;28;20490;-57
2023/02/12 06:17:08;;;;;;;12.77;6.00;;;18.60;99.90;;;;;;5033038;28;20026;-57
2023/02/12 06:19:35;;;;;;;11.90;6.22;;;18.60;99.90;;;;;;5052103;28;20021;-57
2023/02/12 06:22:00;;;;;;;10.98;5.75;;;18.60;99.90;;;;;;5038448;28;20052;-57
2023/02/12 06:24:26;;;;;;;11.07;5.35;;;18.50;99.90;;;;;;5038295;28;20475;-57
2023/02/12 06:26:52;;;;;;;10.45;5.03;;;18.50;99.90;;;;;;5038933;28;20530;-57
2023/02/12 06:29:19;;;;;;;10.20;5.88;;;18.50;99.90;;;;;;5036957;28;20437;-57
2023/02/12 06:31:45;;;;;;;12.70;6.13;;;18.60;99.90;;;;;;5051931;28;20442;-56
2023/02/12 06:34:12;;;;;;;11.20;6.18;;;18.50;99.90;;;;;;5034855;28;20108;-56
2023/02/12 06:36:43;;;;;;;10.38;4.68;;;18.50;99.90;;;;;;5042538;28;20017;-57
2023/02/12 06:39:10;;;;;;;9.35;5.57;;;18.50;99.90;;;;;;5033849;28;20120;-56
2023/02/12 06:41:36;;;;;;;8.55;5.72;;;18.50;99.90;;;;;;5031755;28;20033;-56
2023/02/12 06:44:02;;;;;;;11.05;6.60;;;18.50;99.90;;;;;;5034747;28;20026;-56
2023/02/12 06:46:28;;;;;;;13.13;6.05;;;18.50;99.90;;;;;;5043788;28;20460;-55
2023/02/12 06:48:55;;;;;;;12.95;5.90;;;18.50;99.90;;;;;;5046425;28;20029;-55
2023/02/12 06:51:22;;;;;;;9.48;5.82;;;18.50;99.90;;;;;;5043324;28;20070;-56
2023/02/12 06:53:50;;;;;;;7.43;4.90;;;18.50;99.90;;;;;;5031679;28;20117;-57
2023/02/12 06:56:15;;;;;;;;;;;18.50;99.90;;;;;;5032103;28;20071;-57
2023/02/12 06:58:46;;;;;;;10.65;5.90;;;18.50;99.90;;;;;;5045435;28;19905;-58
2023/02/12 07:01:14;;;;;;;11.38;7.13;;;18.50;99.90;;;;;;5051188;28;20052;-56
2023/02/12 07:03:40;;;;;;;12.55;7.18;;;18.50;99.90;;;;;;5051735;28;20498;-57
2023/02/12 07:06:07;;;;;;;13.13;6.60;;;18.50;99.90;;;;;;5016997;28;20045;-58
2023/02/12 07:08:32;;;;;;;14.88;7.32;;;18.50;99.90;;;;;;5031684;28;20029;-58
2023/02/12 07:10:58;;;;;;;10.93;6.35;;;18.50;99.90;;;;;;5031561;28;20127;-57
2023/02/12 07:13:24;;;;;;;10.70;6.70;;;18.50;99.90;;;;;;5045427;28;20463;-59
2023/02/12 07:15:50;;;;;;;11.10;5.72;;;18.50;99.90;;;;;;5049928;28;20174;-58
2023/02/12 07:18:15;;;;;;;11.20;6.32;;;18.50;99.90;;;;;;5051107;28;20417;-57
2023/02/12 07:20:41;;;;;;;10.50;6.43;;;18.40;99.90;;;;;;5013672;28;20071;-58
2023/02/12 07:23:10;;;;;;;10.65;6.63;;;18.50;99.90;;;;;;5044617;28;20382;-57
2023/02/12 07:25:36;;;;;;;10.82;6.93;;;18.50;99.90;;;;;;5045447;28;20009;-58
2023/02/12 07:28:02;;;;;;;12.57;6.72;;;18.50;99.90;;;;;;5013942;28;20028;-57
2023/02/12 07:30:28;;;;;;;11.10;6.88;;;18.50;99.90;;;;;;5036982;28;20513;-57
2023/02/12 07:32:54;;;;;;;11.43;6.55;;;18.50;99.90;;;;;;5053279;28;20029;-57
2023/02/12 07:35:20;;;;;;;13.00;6.07;;;18.50;99.90;;;;;;5055034;28;20023;-57
2023/02/12 07:37:45;;;;;;;11.50;6.82;;;18.50;99.90;;;;;;5045092;28;20100;-57
2023/02/12 07:40:11;;;;;;;13.70;7.00;;;18.50;99.90;;;;;;5054476;28;20025;-57
2023/02/12 07:42:37;;;;;;;13.25;7.38;;;18.50;99.90;;;;;;5054337;28;20059;-57
2023/02/12 07:45:03;;;;;;;13.90;7.88;;;18.50;99.90;;;;;;5035654;28;20033;-57
2023/02/12 07:47:29;;;;;;;12.48;6.85;;;18.50;99.90;;;;;;5054425;28;20027;-57
2023/02/12 07:49:55;;;;;;;11.35;6.75;;;18.50;99.90;;;;;;5053892;28;20025;-57
2023/02/12 07:52:21;;;;;;;11.15;7.28;;;18.50;99.90;;;;;;5034727;28;20076;-57
2023/02/12 07:54:47;;;;;;;13.25;7.07;;;18.50;99.90;;;;;;5047286;28;20032;-58
2023/02/12 07:57:12;;;;;;;13.05;7.78;;;18.50;99.90;;;;;;5053518;28;20045;-57
2023/02/12 07:59:38;;;;;;;11.50;7.20;;;18.50;99.90;;;;;;5052362;28;20475;-58
2023/02/12 08:02:04;;;;;;;12.88;7.55;;;18.50;99.90;;;;;;5027764;28;20052;-57
2023/02/12 08:04:29;;;;;;;11.38;6.93;;;18.50;99.90;;;;;;5031179;28;20028;-58
2023/02/12 08:06:55;;;;;;;11.63;6.18;;;18.50;99.90;;;;;;5054080;28;20024;-57
2023/02/12 08:09:27;;;;;;;13.95;7.85;;;18.50;99.90;;;;;;5036140;28;20068;-57
2023/02/12 08:11:53;;;;;;;14.05;7.72;;;18.50;99.90;;;;;;5035190;28;20075;-58
2023/02/12 08:14:20;;;;;;;10.63;6.95;;;18.50;99.90;;;;;;5046523;28;20082;-56
2023/02/12 08:16:47;;;;;;;14.50;8.77;;;18.60;99.90;;;;;;5054236;28;20009;-57
2023/02/12 08:19:14;;;;;;;15.57;8.45;;;18.60;99.90;;;;;;5043845;28;20037;-59
2023/02/12 08:21:39;;;;;;;10.90;7.00;;;18.60;99.90;;;;;;5049415;28;20059;-58
2023/02/12 08:24:05;;;;;;;12.60;7.28;;;18.60;99.90;;;;;;5039583;28;20053;-58
2023/02/12 08:26:34;;;;;;;13.75;7.85;;;18.60;99.90;;;;;;5053898;28;20027;-60
2023/02/12 08:29:06;;;;;;;14.52;7.93;;;18.60;99.90;;;;;;5053699;28;20391;-56
2023/02/12 08:31:34;;;;;;;15.60;7.82;;;18.60;99.90;;;;;;5053791;28;20472;-56
2023/02/12 08:34:00;;;;;;;15.95;7.80;;;18.60;99.90;;;;;;5029600;28;20041;-60
2023/02/12 08:36:34;;;;;;;18.05;8.60;;;18.60;99.90;;;;;;5025974;28;20033;-59
2023/02/12 08:39:00;;;;;;;17.25;7.70;;;18.70;99.90;;;;;;5023030;28;20042;-59
2023/02/12 08:41:28;;;;;;;13.02;7.68;;;18.70;99.90;;;;;;5027684;28;20386;-59
2023/02/12 08:43:54;;;;;;;;;;;18.70;99.90;;;;;;5023198;28;20475;-59
2023/02/12 08:46:25;;;;;;;15.20;8.07;;;18.70;99.90;;;;;;5018003;28;20007;-58
2023/02/12 08:48:56;;;;;;;14.70;7.50;;;18.80;99.90;;;;;;5024019;28;20266;-57
2023/02/12 08:51:24;;;;;;;13.90;8.55;;;18.80;99.90;;;;;;5015404;28;20029;-56
2023/02/12 08:53:59;;;;;;;14.05;8.52;;;18.80;99.90;;;;;;5015055;28;20041;-58
2023/02/12 08:56:27;;;;;;;14.88;8.65;;;18.80;99.90;;;;;;5016576;28;20026;-55
2023/02/12 08:58:52;;;;;;;;;;;18.80;99.90;;;;;;5019588;28;20022;-57
2023/02/12 09:01:21;;;;;;;14.02;8.20;;;18.80;99.90;;;;;;5015301;28;20407;-58
2023/02/12 09:03:47;;;;;;;15.63;7.95;;;18.90;99.90;;;;;;5025792;28;20052;-58
2023/02/12 09:06:15;;;;;;;14.88;8.38;;;18.90;99.90;;;;;;5019653;28;20060;-59
2023/02/12 09:08:41;;;;;;;;;;;18.90;99.90;;;;;;5022032;28;21104;-57
2023/02/12 09:11:15;;;;;;;21.27;8.13;;;18.90;99.90;;;;;;5024612;28;19916;-57
2023/02/12 09:13:42;;;;;;;25.95;8.43;;;18.90;99.90;;;;;;5017316;28;20131;-57
2023/02/12 09:16:09;;;;;;;14.88;8.48;;;19.00;99.90;;;;;;5015054;28;20403;-56
2023/02/12 09:18:35;;;;;;;17.80;8.70;;;19.00;99.90;;;;;;5020984;28;20033;-56
2023/02/12 09:21:04;;;;;;;16.58;8.52;;;19.00;99.90;;;;;;4979341;28;20910;-55
2023/02/12 09:23:30;;;;;;;12.82;8.23;;;19.00;99.90;;;;;;4997370;28;20026;-57
2023/02/12 09:25:56;;;;;;;14.20;8.30;;;19.10;99.90;;;;;;5002647;28;20033;-56
2023/02/12 09:28:22;;;;;;;14.48;8.15;;;19.10;99.90;;;;;;5002436;28;20080;-58
2023/02/12 09:30:48;;;;;;;13.25;8.55;;;19.10;99.90;;;;;;5004642;28;20052;-57
2023/02/12 09:33:14;;;;;;;13.63;8.30;;;19.10;99.90;;;;;;5001471;28;20034;-56
2023/02/12 09:35:40;;;;;;;15.93;8.48;;;19.20;99.90;;;;;;5001821;28;20026;-56
2023/02/12 09:38:06;;;;;;;14.70;8.20;;;19.20;99.90;;;;;;5000682;28;20026;-57
2023/02/12 09:40:39;;;;;;;14.38;8.13;;;19.20;99.90;;;;;;4991977;28;20026;-55
2023/02/12 09:43:17;;;;;;;12.98;8.50;;;19.20;99.90;;;;;;5010849;28;20029;-55
2023/02/12 09:46:04;;;;;;;15.23;8.85;;;19.30;99.90;;;;;;5004504;28;20032;-56
2023/02/12 09:48:54;;;;;;;13.32;7.65;;;19.30;99.90;;;;;;5002347;28;20057;-59
2023/02/12 09:51:21;;;;;;;19.80;9.80;;;19.30;99.90;;;;;;4997651;28;20030;-59
2023/02/12 09:53:48;;;;;;;15.45;8.60;;;19.40;99.90;;;;;;5002905;28;20100;-60
2023/02/12 09:56:18;;;;;;;13.32;7.82;;;19.40;99.90;;;;;;5007445;28;20495;-59
2023/02/12 09:58:50;;;;;;;15.57;8.35;;;19.40;99.90;;;;;;5007582;28;20361;-59
2023/02/12 10:01:21;;;;;;;14.27;7.45;;;19.40;99.90;;;;;;4999380;28;20050;-60
2023/02/12 10:03:49;;;;;;;16.23;8.48;;;19.50;99.90;;;;;;4999970;28;20089;-60
2023/02/12 10:06:17;;;;;;;13.80;7.70;;;19.50;99.90;;;;;;4991858;28;20532;-60
2023/02/12 10:08:55;;;;;;;16.90;7.82;;;19.50;99.90;;;;;;5007494;28;20022;-61
2023/02/12 10:11:50;;;;;;;13.82;7.35;;;19.50;99.90;;;;;;5001591;28;20332;-58
2023/02/12 10:14:19;;;;;;;15.05;8.05;;;19.60;99.90;;;;;;5006242;28;20073;-59
2023/02/12 10:17:03;;;;;;;13.15;7.20;;;19.60;99.90;;;;;;5004819;28;20033;-61
2023/02/12 10:19:56;;;;;;;13.30;7.97;;;19.70;99.90;;;;;;5008991;28;20486;-59
2023/02/12 10:22:43;;;;;;;14.00;9.00;;;19.70;99.90;;;;;;5010119;28;20023;-59
2023/02/12 10:25:29;;;;;;;14.35;8.00;;;19.70;99.90;;;;;;5004369;28;20027;-58
2023/02/12 10:28:01;;;;;;;12.48;8.55;;;19.80;99.90;;;;;;5000680;28;20376;-58
2023/02/12 10:30:39;;;;;;;13.20;7.65;;;19.90;99.90;;;;;;4997451;28;20022;-60
2023/02/12 10:33:15;;;;;;;16.00;8.75;;;19.90;99.90;;;;;;5000218;28;20382;-57
2023/02/12 10:36:04;;;;;;;31.27;8.85;;;19.90;99.90;;;;;;5006231;28;20388;-59
2023/02/12 10:38:35;;;;;;;23.63;7.43;;;20.00;99.90;;;;;;4967648;28;20037;-56
2023/02/12 10:41:01;;;;;;;32.88;7.50;;;20.00;99.90;;;;;;4998376;28;20344;-58
2023/02/12 10:43:28;;;;;;;27.17;7.80;;;20.00;99.90;;;;;;5004848;28;20105;-57
2023/02/12 10:45:53;;;;;;;17.33;7.18;;;20.10;99.90;;;;;;5001818;28;20037;-58
2023/02/12 10:48:29;;;;;;;14.98;6.43;;;20.10;99.90;;;;;;5001641;28;20467;-58
2023/02/12 10:50:57;;;;;;;16.98;6.95;;;20.20;99.90;;;;;;5006392;28;20044;-57
2023/02/12 10:53:34;;;;;;;15.07;6.40;;;20.20;99.90;;;;;;5007834;28;20454;-57
2023/02/12 10:56:12;;;;;;;15.97;7.33;;;20.30;99.90;;;;;;5002051;28;20215;-55
2023/02/12 10:58:49;;;;;;;19.92;6.45;;;20.30;99.90;;;;;;4999268;28;20026;-57
2023/02/12 11:01:32;;;;;;;15.55;7.25;;;20.40;99.90;;;;;;4992723;28;20411;-57
2023/02/12 11:04:00;;;;;;;16.27;6.65;;;20.40;99.90;;;;;;5000099;28;20392;-57
2023/02/12 11:06:30;;;;;;;17.52;8.07;;;20.50;99.90;;;;;;5001062;28;20038;-59
2023/02/12 11:08:57;;;;;;;14.50;7.20;;;20.50;99.90;;;;;;5002031;28;20483;-59
2023/02/12 11:11:37;;;;;;;19.45;8.68;;;20.50;99.90;;;;;;5012942;28;20076;-56
2023/02/12 11:14:19;;;;;;;21.90;7.22;;;20.50;99.90;;;;;;5010295;28;20049;-60
2023/02/12 11:16:52;;;;;;;21.85;8.40;;;20.60;99.90;;;;;;5000985;28;20096;-59
2023/02/12 11:19:23;;;;;;;18.05;8.07;;;20.60;99.90;;;;;;4999412;28;20502;-58
2023/02/12 11:21:50;;;;;;;17.60;7.40;;;20.70;99.90;;;;;;4995315;28;20439;-59
2023/02/12 11:24:29;;;;;;;17.43;7.93;;;20.70;99.90;;;;;;5012250;28;20017;-59
2023/02/12 11:27:14;;;;;;;19.40;8.18;;;20.70;99.90;;;;;;5005781;28;20271;-58
2023/02/12 11:29:41;;;;;;;20.55;8.15;;;20.70;99.90;;;;;;5008366;28;20022;-55
2023/02/12 11:32:14;;;;;;;24.50;8.85;;;20.80;99.90;;;;;;5012285;28;20095;-57
2023/02/12 11:34:40;;;;;;;18.52;8.10;;;20.80;99.90;;;;;;5011617;28;20112;-58
2023/02/12 11:37:17;;;;;;;20.30;8.32;;;20.80;99.90;;;;;;5012079;28;20629;-58
2023/02/12 11:39:48;;;;;;;14.30;9.32;;;20.90;99.90;;;;;;5004933;28;20030;-59
2023/02/12 11:42:16;;;;;;;19.25;9.10;;;20.90;99.90;;;;;;5004655;28;20072;-57
2023/02/12 11:44:54;;;;;;;19.65;9.40;;;20.90;99.90;;;;;;5014154;28;20471;-60
2023/02/12 11:47:23;;;;;;;22.33;9.18;;;21.00;99.90;;;;;;4996173;28;20018;-60
2023/02/12 11:49:49;;;;;;;17.90;9.15;;;21.00;99.90;;;;;;5004829;28;20073;-59
2023/02/12 11:52:27;;;;;;;17.48;9.73;;;21.00;99.90;;;;;;5007574;28;20030;-59
2023/02/12 11:55:01;;;;;;;18.33;10.18;;;21.10;99.90;;;;;;5010399;28;20030;-57
2023/02/12 11:57:46;;;;;;;22.60;10.50;;;21.10;99.90;;;;;;4995140;28;20014;-44
2023/02/12 12:00:16;;;;;;;17.35;10.18;;;21.10;99.90;;;;;;5012339;28;20044;-57
2023/02/12 12:02:48;;;;;;;16.83;10.13;;;21.20;99.90;;;;;;5013493;28;20021;-55
2023/02/12 12:05:19;;;;;;;17.30;10.80;;;21.20;99.90;;;;;;5003821;28;20033;-57
2023/02/12 12:07:57;;;;;;;16.58;11.23;;;21.30;99.90;;;;;;5003113;28;20079;-55
2023/02/12 12:10:45;;;;;;;17.33;11.10;;;21.30;99.90;;;;;;4999145;28;20038;-56
2023/02/12 12:13:26;;;;;;;20.60;11.75;;;21.40;99.90;;;;;;5000162;28;20121;-53
2023/02/12 12:22:26;;;;;;;14.93;10.43;;;21.50;99.90;;;;;;4981217;28;20176;-55
2023/02/12 12:24:56;;;;;;;18.02;10.40;;;21.50;99.90;;;;;;5014461;28;20400;-55
2023/02/12 12:30:32;;;;;;;16.50;11.77;;;21.60;99.90;;;;;;5004525;28;20385;-53
2023/02/12 12:33:02;;;;;;;18.95;11.23;;;21.60;99.90;;;;;;5012397;28;20026;-56
2023/02/12 12:35:44;;;;;;;23.30;12.05;;;21.60;99.90;;;;;;5013229;28;20084;-54
2023/02/12 12:38:22;;;;;;;17.55;11.90;;;21.70;99.90;;;;;;5003851;28;20021;-54
2023/02/12 12:41:04;;;;;;;18.95;12.00;;;21.70;99.90;;;;;;5000784;28;20026;-54
2023/02/12 12:43:47;;;;;;;20.92;11.65;;;21.70;99.90;;;;;;5000095;28;20021;-56
2023/02/12 12:46:29;;;;;;;36.55;21.10;;;21.80;99.90;;;;;;5007841;28;20045;-58
2023/02/12 12:49:06;;;;;;;27.58;18.30;;;21.80;99.90;;;;;;4997657;28;20026;-57
2023/02/12 12:51:46;;;;;;;27.80;17.63;;;21.90;99.90;;;;;;4999075;28;20033;-53
2023/02/12 12:54:44;;;;;;;25.77;17.52;;;21.90;99.90;;;;;;5007503;28;20050;-54
2023/02/12 12:57:15;;;;;;;29.77;17.30;;;22.00;99.90;;;;;;4956266;28;20074;-53
2023/02/12 13:00:00;;;;;;;29.55;17.58;;;22.00;99.90;;;;;;4999793;28;20384;-52
2023/02/12 13:02:47;;;;;;;27.63;16.63;;;22.00;99.90;;;;;;5014339;28;20029;-51
2023/02/12 13:05:46;;;;;;;27.98;15.93;;;22.00;99.90;;;;;;5013374;28;20033;-53
2023/02/12 13:08:15;;;;;;;24.30;15.50;;;22.00;99.90;;;;;;4991239;28;20454;-52
2023/02/12 13:10:48;;;;;;;25.08;16.02;;;22.10;99.90;;;;;;5010006;28;20046;-52
2023/02/12 13:13:43;;;;;;;23.35;14.80;;;22.10;99.90;;;;;;5005823;28;20049;-53
2023/02/12 13:16:15;;;;;;;25.10;14.63;;;22.10;99.90;;;;;;5013883;28;20022;-52